sensor_id;sensor_type;location;lat;lon;timestamp;pressure;altitude;pressure_sealevel;temperature;humidity
39954;BME280;25631;51.516;-0.470;2023-02-23T00:02:16;101247.58;;;5.23;39.78
39954;BME280;25631;51.516;-0.470;2023-02-23T00:04:53;101246.91;;;5.50;39.84
39954;BME280;25631;51.516;-0.470;2023-02-23T00:07:29;101246.36;;;5.27;39.95
39954;BME280;25631;51.516;-0.470;2023-02-23T00:10:07;101251.87;;;5.19;40.20
39954;BME280;25631;51.516;-0.470;2023-02-23T00:12:43;101260.82;;;5.14;40.23
39954;BME280;25631;51.516;-0.470;2023-02-23T00:15:20;101264.58;;;5.18;40.23
39954;BME280;25631;51.516;-0.470;2023-02-23T00:17:57;101269.12;;;5.18;40.30
39954;BME280;25631;51.516;-0.470;2023-02-23T00:20:33;101274.97;;;5.49;40.31
39954;BME280;25631;51.516;-0.470;2023-02-23T00:23:10;101273.82;;;5.55;40.24
39954;BME280;25631;51.516;-0.470;2023-02-23T00:25:46;101264.74;;;5.78;40.18
39954;BME280;25631;51.516;-0.470;2023-02-23T00:28:23;101261.22;;;5.71;40.03
39954;BME280;25631;51.516;-0.470;2023-02-23T00:31:01;101262.63;;;5.99;39.98
39954;BME280;25631;51.516;-0.470;2023-02-23T00:33:38;101267.51;;;5.89;39.87
39954;BME280;25631;51.516;-0.470;2023-02-23T00:36:14;101269.13;;;5.97;39.84
39954;BME280;25631;51.516;-0.470;2023-02-23T00:38:52;101270.06;;;5.93;39.83
39954;BME280;25631;51.516;-0.470;2023-02-23T00:41:29;101269.93;;;5.96;39.86
39954;BME280;25631;51.516;-0.470;2023-02-23T00:44:06;101266.20;;;6.00;39.73
39954;BME280;25631;51.516;-0.470;2023-02-23T00:46:44;101270.82;;;6.11;39.61
39954;BME280;25631;51.516;-0.470;2023-02-23T00:49:21;101265.10;;;5.96;39.58
39954;BME280;25631;51.516;-0.470;2023-02-23T00:51:58;101264.65;;;6.14;39.63
39954;BME280;25631;51.516;-0.470;2023-02-23T00:54:35;101267.31;;;5.97;39.61
39954;BME280;25631;51.516;-0.470;2023-02-23T00:57:11;101270.44;;;6.02;39.67
39954;BME280;25631;51.516;-0.470;2023-02-23T00:59:48;101274.34;;;6.00;39.66
39954;BME280;25631;51.516;-0.470;2023-02-23T01:02:24;101277.23;;;5.85;39.62
39954;BME280;25631;51.516;-0.470;2023-02-23T01:05:01;101273.49;;;5.88;39.64
39954;BME280;25631;51.516;-0.470;2023-02-23T01:07:39;101271.49;;;5.84;39.68
39954;BME280;25631;51.516;-0.470;2023-02-23T01:10:16;101268.52;;;5.80;39.71
39954;BME280;25631;51.516;-0.470;2023-02-23T01:12:53;101267.75;;;5.77;39.77
39954;BME280;25631;51.516;-0.470;2023-02-23T01:15:29;101265.91;;;5.63;40.01
39954;BME280;25631;51.516;-0.470;2023-02-23T01:18:05;101267.80;;;5.44;40.10
39954;BME280;25631;51.516;-0.470;2023-02-23T01:20:43;101276.59;;;5.59;40.22
39954;BME280;25631;51.516;-0.470;2023-02-23T01:23:19;101279.54;;;5.66;40.45
39954;BME280;25631;51.516;-0.470;2023-02-23T01:25:56;101283.93;;;5.56;40.50
39954;BME280;25631;51.516;-0.470;2023-02-23T01:28:33;101288.96;;;5.42;40.84
39954;BME280;25631;51.516;-0.470;2023-02-23T01:31:09;101296.63;;;5.42;40.86
39954;BME280;25631;51.516;-0.470;2023-02-23T01:33:46;101292.77;;;5.53;40.91
39954;BME280;25631;51.516;-0.470;2023-02-23T01:36:23;101295.11;;;5.50;40.95
39954;BME280;25631;51.516;-0.470;2023-02-23T01:39:00;101291.30;;;5.41;41.17
39954;BME280;25631;51.516;-0.470;2023-02-23T01:41:38;101291.18;;;5.62;41.17
39954;BME280;25631;51.516;-0.470;2023-02-23T01:46:33;101291.77;;;5.62;41.49
39954;BME280;25631;51.516;-0.470;2023-02-23T01:49:14;101294.55;;;5.45;41.56
39954;BME280;25631;51.516;-0.470;2023-02-23T01:51:53;101293.46;;;5.99;41.81
39954;BME280;25631;51.516;-0.470;2023-02-23T01:54:35;101292.82;;;5.44;42.04
39954;BME280;25631;51.516;-0.470;2023-02-23T01:57:14;101292.76;;;5.60;42.23
39954;BME280;25631;51.516;-0.470;2023-02-23T01:59:50;101295.47;;;5.63;42.25
39954;BME280;25631;51.516;-0.470;2023-02-23T02:02:28;101295.95;;;5.63;42.29
39954;BME280;25631;51.516;-0.470;2023-02-23T02:05:06;101296.98;;;5.71;42.42
39954;BME280;25631;51.516;-0.470;2023-02-23T02:07:46;101299.23;;;5.65;42.42
39954;BME280;25631;51.516;-0.470;2023-02-23T02:10:25;101300.40;;;5.56;42.45
39954;BME280;25631;51.516;-0.470;2023-02-23T02:13:02;101301.36;;;5.70;42.49
39954;BME280;25631;51.516;-0.470;2023-02-23T02:15:47;101298.87;;;5.70;42.57
39954;BME280;25631;51.516;-0.470;2023-02-23T02:18:35;101302.21;;;5.62;42.65
39954;BME280;25631;51.516;-0.470;2023-02-23T02:21:28;101302.76;;;5.65;42.66
39954;BME280;25631;51.516;-0.470;2023-02-23T02:24:36;101304.02;;;5.60;42.92
39954;BME280;25631;51.516;-0.470;2023-02-23T02:27:29;101300.73;;;5.50;43.00
39954;BME280;25631;51.516;-0.470;2023-02-23T02:30:45;101297.50;;;5.32;43.09
39954;BME280;25631;51.516;-0.470;2023-02-23T02:36:10;101301.22;;;5.24;43.17
39954;BME280;25631;51.516;-0.470;2023-02-23T02:38:55;101300.79;;;5.58;43.22
39954;BME280;25631;51.516;-0.470;2023-02-23T02:41:42;101300.26;;;5.35;43.39
39954;BME280;25631;51.516;-0.470;2023-02-23T02:44:29;101301.83;;;5.76;43.38
39954;BME280;25631;51.516;-0.470;2023-02-23T02:47:10;101303.85;;;5.52;43.56
39954;BME280;25631;51.516;-0.470;2023-02-23T02:49:50;101299.92;;;5.16;43.43
39954;BME280;25631;51.516;-0.470;2023-02-23T02:52:36;101298.25;;;5.51;43.46
39954;BME280;25631;51.516;-0.470;2023-02-23T02:55:17;101294.60;;;5.47;43.42
39954;BME280;25631;51.516;-0.470;2023-02-23T02:57:57;101300.76;;;5.44;43.38
39954;BME280;25631;51.516;-0.470;2023-02-23T03:00:36;101301.04;;;5.39;43.29
39954;BME280;25631;51.516;-0.470;2023-02-23T03:03:27;101300.69;;;5.33;43.29
39954;BME280;25631;51.516;-0.470;2023-02-23T03:06:04;101302.15;;;5.56;43.30
39954;BME280;25631;51.516;-0.470;2023-02-23T03:08:47;101299.46;;;5.34;43.21
39954;BME280;25631;51.516;-0.470;2023-02-23T03:11:32;101298.28;;;5.54;43.25
39954;BME280;25631;51.516;-0.470;2023-02-23T03:14:20;101299.11;;;5.07;43.18
39954;BME280;25631;51.516;-0.470;2023-02-23T03:17:06;101295.14;;;5.33;43.15
39954;BME280;25631;51.516;-0.470;2023-02-23T03:19:54;101296.82;;;5.13;43.13
39954;BME280;25631;51.516;-0.470;2023-02-23T03:22:37;101296.92;;;5.34;43.11
39954;BME280;25631;51.516;-0.470;2023-02-23T03:25:20;101298.45;;;5.40;43.20
39954;BME280;25631;51.516;-0.470;2023-02-23T03:28:09;101303.32;;;4.69;43.36
39954;BME280;25631;51.516;-0.470;2023-02-23T03:30:53;101300.29;;;4.93;43.44
39954;BME280;25631;51.516;-0.470;2023-02-23T03:33:36;101302.35;;;5.17;43.47
39954;BME280;25631;51.516;-0.470;2023-02-23T03:36:20;101301.66;;;5.12;43.50
39954;BME280;25631;51.516;-0.470;2023-02-23T03:39:05;101306.34;;;5.14;43.49
39954;BME280;25631;51.516;-0.470;2023-02-23T03:41:49;101310.64;;;5.12;43.58
39954;BME280;25631;51.516;-0.470;2023-02-23T03:44:30;101308.72;;;4.86;43.72
39954;BME280;25631;51.516;-0.470;2023-02-23T03:47:11;101313.59;;;5.26;43.68
39954;BME280;25631;51.516;-0.470;2023-02-23T03:49:50;101315.82;;;4.98;43.81
39954;BME280;25631;51.516;-0.470;2023-02-23T03:52:30;101322.06;;;4.86;43.97
39954;BME280;25631;51.516;-0.470;2023-02-23T03:55:15;101318.82;;;4.89;43.92
39954;BME280;25631;51.516;-0.470;2023-02-23T03:57:54;101320.88;;;4.86;43.97
39954;BME280;25631;51.516;-0.470;2023-02-23T04:00:35;101324.09;;;4.93;43.85
39954;BME280;25631;51.516;-0.470;2023-02-23T04:03:16;101322.05;;;5.22;43.86
39954;BME280;25631;51.516;-0.470;2023-02-23T04:05:55;101328.04;;;4.80;43.82
39954;BME280;25631;51.516;-0.470;2023-02-23T04:08:36;101326.58;;;5.05;43.78
39954;BME280;25631;51.516;-0.470;2023-02-23T04:11:17;101329.25;;;4.84;43.84
39954;BME280;25631;51.516;-0.470;2023-02-23T04:14:00;101326.80;;;5.07;43.88
39954;BME280;25631;51.516;-0.470;2023-02-23T04:16:41;101327.93;;;4.93;43.77
39954;BME280;25631;51.516;-0.470;2023-02-23T04:19:18;101328.14;;;5.39;43.79
39954;BME280;25631;51.516;-0.470;2023-02-23T04:21:54;101328.60;;;5.39;43.80
39954;BME280;25631;51.516;-0.470;2023-02-23T04:24:31;101331.11;;;5.07;43.74
39954;BME280;25631;51.516;-0.470;2023-02-23T04:27:07;101325.66;;;4.90;43.85
39954;BME280;25631;51.516;-0.470;2023-02-23T04:29:44;101327.88;;;4.96;43.88
39954;BME280;25631;51.516;-0.470;2023-02-23T04:32:21;101327.55;;;4.89;43.77
39954;BME280;25631;51.516;-0.470;2023-02-23T04:34:57;101331.63;;;4.89;43.77
39954;BME280;25631;51.516;-0.470;2023-02-23T04:37:34;101333.46;;;5.16;43.88
39954;BME280;25631;51.516;-0.470;2023-02-23T04:40:11;101331.17;;;4.89;43.86
39954;BME280;25631;51.516;-0.470;2023-02-23T04:42:48;101335.92;;;4.71;43.77
39954;BME280;25631;51.516;-0.470;2023-02-23T04:45:25;101339.51;;;5.16;43.69
39954;BME280;25631;51.516;-0.470;2023-02-23T04:48:02;101340.69;;;5.01;43.81
39954;BME280;25631;51.516;-0.470;2023-02-23T04:50:39;101340.40;;;5.24;43.74
39954;BME280;25631;51.516;-0.470;2023-02-23T04:53:15;101341.76;;;5.10;43.77
39954;BME280;25631;51.516;-0.470;2023-02-23T04:55:52;101338.78;;;5.18;43.81
39954;BME280;25631;51.516;-0.470;2023-02-23T04:58:28;101340.44;;;5.01;43.89
39954;BME280;25631;51.516;-0.470;2023-02-23T05:01:06;101340.80;;;5.25;43.81
39954;BME280;25631;51.516;-0.470;2023-02-23T05:03:43;101345.75;;;5.03;43.74
39954;BME280;25631;51.516;-0.470;2023-02-23T05:06:19;101343.48;;;5.09;43.92
39954;BME280;25631;51.516;-0.470;2023-02-23T05:08:56;101347.16;;;5.10;43.87
39954;BME280;25631;51.516;-0.470;2023-02-23T05:11:33;101353.55;;;4.67;44.03
39954;BME280;25631;51.516;-0.470;2023-02-23T05:14:09;101359.85;;;5.09;44.02
39954;BME280;25631;51.516;-0.470;2023-02-23T05:16:46;101367.51;;;5.01;43.95
39954;BME280;25631;51.516;-0.470;2023-02-23T05:19:23;101361.90;;;4.74;43.89
39954;BME280;25631;51.516;-0.470;2023-02-23T05:22:00;101361.70;;;4.78;43.91
39954;BME280;25631;51.516;-0.470;2023-02-23T05:24:36;101366.91;;;5.24;43.93
39954;BME280;25631;51.516;-0.470;2023-02-23T05:27:13;101366.80;;;5.17;43.93
39954;BME280;25631;51.516;-0.470;2023-02-23T05:29:49;101366.60;;;5.10;43.94
39954;BME280;25631;51.516;-0.470;2023-02-23T05:32:26;101363.95;;;4.93;43.93
39954;BME280;25631;51.516;-0.470;2023-02-23T05:35:03;101370.57;;;4.94;43.77
39954;BME280;25631;51.516;-0.470;2023-02-23T05:37:39;101370.79;;;5.27;43.86
39954;BME280;25631;51.516;-0.470;2023-02-23T05:40:16;101370.72;;;4.75;43.74
39954;BME280;25631;51.516;-0.470;2023-02-23T05:42:58;101371.86;;;5.12;43.65
39954;BME280;25631;51.516;-0.470;2023-02-23T05:45:38;101376.22;;;4.94;43.66
39954;BME280;25631;51.516;-0.470;2023-02-23T05:48:15;101378.05;;;4.80;43.66
39954;BME280;25631;51.516;-0.470;2023-02-23T05:50:52;101383.47;;;5.03;43.71
39954;BME280;25631;51.516;-0.470;2023-02-23T05:53:28;101385.13;;;5.18;43.72
39954;BME280;25631;51.516;-0.470;2023-02-23T05:56:06;101388.40;;;5.35;43.75
39954;BME280;25631;51.516;-0.470;2023-02-23T05:58:44;101398.74;;;5.41;43.91
39954;BME280;25631;51.516;-0.470;2023-02-23T06:01:21;101402.52;;;5.14;43.94
39954;BME280;25631;51.516;-0.470;2023-02-23T06:03:57;101409.34;;;5.37;43.90
39954;BME280;25631;51.516;-0.470;2023-02-23T06:06:34;101412.11;;;5.38;43.98
39954;BME280;25631;51.516;-0.470;2023-02-23T06:09:11;101417.81;;;5.34;43.92
39954;BME280;25631;51.516;-0.470;2023-02-23T06:11:47;101423.93;;;5.24;43.91
39954;BME280;25631;51.516;-0.470;2023-02-23T06:14:24;101432.13;;;5.27;43.95
39954;BME280;25631;51.516;-0.470;2023-02-23T06:17:00;101429.88;;;5.23;44.00
39954;BME280;25631;51.516;-0.470;2023-02-23T06:19:37;101428.45;;;5.04;44.27
39954;BME280;25631;51.516;-0.470;2023-02-23T06:22:13;101428.28;;;5.23;44.32
39954;BME280;25631;51.516;-0.470;2023-02-23T06:24:50;101434.23;;;5.12;44.35
39954;BME280;25631;51.516;-0.470;2023-02-23T06:27:26;101435.34;;;4.99;44.35
39954;BME280;25631;51.516;-0.470;2023-02-23T06:30:03;101439.36;;;4.84;44.36
39954;BME280;25631;51.516;-0.470;2023-02-23T06:32:40;101438.37;;;4.79;44.66
39954;BME280;25631;51.516;-0.470;2023-02-23T06:35:17;101439.65;;;4.79;44.53
39954;BME280;25631;51.516;-0.470;2023-02-23T06:37:53;101442.62;;;5.00;44.45
39954;BME280;25631;51.516;-0.470;2023-02-23T06:40:30;101446.71;;;4.74;44.40
39954;BME280;25631;51.516;-0.470;2023-02-23T06:43:07;101455.90;;;4.91;44.42
39954;BME280;25631;51.516;-0.470;2023-02-23T06:45:45;101460.31;;;5.01;44.28
39954;BME280;25631;51.516;-0.470;2023-02-23T06:48:22;101463.75;;;4.75;44.40
39954;BME280;25631;51.516;-0.470;2023-02-23T06:50:59;101464.43;;;5.05;44.34
39954;BME280;25631;51.516;-0.470;2023-02-23T06:53:36;101468.96;;;4.83;44.54
39954;BME280;25631;51.516;-0.470;2023-02-23T06:56:12;101475.18;;;4.82;44.54
39954;BME280;25631;51.516;-0.470;2023-02-23T06:58:49;101473.18;;;4.58;44.73
39954;BME280;25631;51.516;-0.470;2023-02-23T07:01:25;101471.26;;;4.77;44.69
39954;BME280;25631;51.516;-0.470;2023-02-23T07:04:02;101471.87;;;4.98;44.57
39954;BME280;25631;51.516;-0.470;2023-02-23T07:06:38;101479.47;;;4.92;44.53
39954;BME280;25631;51.516;-0.470;2023-02-23T07:09:15;101483.44;;;4.80;44.61
39954;BME280;25631;51.516;-0.470;2023-02-23T07:11:52;101480.43;;;4.52;44.72
39954;BME280;25631;51.516;-0.470;2023-02-23T07:14:29;101477.26;;;4.55;44.95
39954;BME280;25631;51.516;-0.470;2023-02-23T07:17:06;101480.11;;;4.53;45.07
39954;BME280;25631;51.516;-0.470;2023-02-23T07:19:43;101484.17;;;4.54;44.83
39954;BME280;25631;51.516;-0.470;2023-02-23T07:22:20;101493.50;;;4.65;44.78
39954;BME280;25631;51.516;-0.470;2023-02-23T07:24:56;101495.00;;;4.83;44.71
39954;BME280;25631;51.516;-0.470;2023-02-23T07:27:33;101495.26;;;4.66;44.81
39954;BME280;25631;51.516;-0.470;2023-02-23T07:30:11;101502.33;;;4.87;44.79
39954;BME280;25631;51.516;-0.470;2023-02-23T07:32:48;101506.67;;;4.53;44.78
39954;BME280;25631;51.516;-0.470;2023-02-23T07:35:24;101507.70;;;4.75;44.78
39954;BME280;25631;51.516;-0.470;2023-02-23T07:38:01;101515.72;;;4.78;44.71
39954;BME280;25631;51.516;-0.470;2023-02-23T07:40:38;101522.65;;;4.87;44.57
39954;BME280;25631;51.516;-0.470;2023-02-23T07:43:15;101525.29;;;4.86;44.48
39954;BME280;25631;51.516;-0.470;2023-02-23T07:45:51;101528.24;;;4.97;44.50
39954;BME280;25631;51.516;-0.470;2023-02-23T07:48:28;101530.93;;;4.90;44.46
39954;BME280;25631;51.516;-0.470;2023-02-23T07:51:08;101536.52;;;5.00;44.31
39954;BME280;25631;51.516;-0.470;2023-02-23T07:53:45;101542.83;;;4.72;44.40
39954;BME280;25631;51.516;-0.470;2023-02-23T07:56:22;101547.06;;;4.93;44.37
39954;BME280;25631;51.516;-0.470;2023-02-23T07:58:58;101549.39;;;4.98;44.32
39954;BME280;25631;51.516;-0.470;2023-02-23T08:01:35;101548.57;;;4.78;44.38
39954;BME280;25631;51.516;-0.470;2023-02-23T08:04:13;101553.47;;;5.10;44.36
39954;BME280;25631;51.516;-0.470;2023-02-23T08:06:50;101556.85;;;5.01;44.23
39954;BME280;25631;51.516;-0.470;2023-02-23T08:09:27;101558.51;;;5.26;44.20
39954;BME280;25631;51.516;-0.470;2023-02-23T08:12:03;101556.03;;;4.90;44.27
39954;BME280;25631;51.516;-0.470;2023-02-23T08:14:41;101567.07;;;4.62;44.23
39954;BME280;25631;51.516;-0.470;2023-02-23T08:17:17;101567.76;;;4.88;44.08
39954;BME280;25631;51.516;-0.470;2023-02-23T08:19:54;101568.46;;;5.04;44.20
39954;BME280;25631;51.516;-0.470;2023-02-23T08:22:30;101567.06;;;4.96;44.37
39954;BME280;25631;51.516;-0.470;2023-02-23T08:25:08;101565.57;;;4.85;44.23
39954;BME280;25631;51.516;-0.470;2023-02-23T08:27:45;101563.22;;;4.96;44.18
39954;BME280;25631;51.516;-0.470;2023-02-23T08:30:23;101558.71;;;4.90;44.13
39954;BME280;25631;51.516;-0.470;2023-02-23T08:33:00;101552.03;;;4.59;44.17
39954;BME280;25631;51.516;-0.470;2023-02-23T08:35:37;101553.92;;;4.86;44.09
39954;BME280;25631;51.516;-0.470;2023-02-23T08:38:13;101553.47;;;5.05;43.85
39954;BME280;25631;51.516;-0.470;2023-02-23T08:40:50;101562.43;;;4.85;43.77
39954;BME280;25631;51.516;-0.470;2023-02-23T08:43:27;101557.16;;;5.01;43.60
39954;BME280;25631;51.516;-0.470;2023-02-23T08:46:03;101562.32;;;5.04;43.54
39954;BME280;25631;51.516;-0.470;2023-02-23T08:48:40;101563.44;;;5.26;43.45
39954;BME280;25631;51.516;-0.470;2023-02-23T08:51:17;101571.38;;;5.27;43.30
39954;BME280;25631;51.516;-0.470;2023-02-23T08:53:53;101579.37;;;5.10;43.14
39954;BME280;25631;51.516;-0.470;2023-02-23T08:56:30;101579.94;;;5.19;43.24
39954;BME280;25631;51.516;-0.470;2023-02-23T08:59:07;101588.46;;;4.93;43.07
39954;BME280;25631;51.516;-0.470;2023-02-23T09:01:44;101594.23;;;5.44;43.04
39954;BME280;25631;51.516;-0.470;2023-02-23T09:04:21;101594.91;;;4.79;42.92
39954;BME280;25631;51.516;-0.470;2023-02-23T09:06:57;101592.68;;;5.04;42.94
39954;BME280;25631;51.516;-0.470;2023-02-23T09:09:34;101602.59;;;4.94;42.91
39954;BME280;25631;51.516;-0.470;2023-02-23T09:12:10;101607.57;;;5.33;42.86
39954;BME280;25631;51.516;-0.470;2023-02-23T09:14:47;101609.00;;;5.16;42.77
39954;BME280;25631;51.516;-0.470;2023-02-23T09:17:23;101615.74;;;5.18;42.82
39954;BME280;25631;51.516;-0.470;2023-02-23T09:20:00;101611.05;;;5.57;42.85
39954;BME280;25631;51.516;-0.470;2023-02-23T09:22:37;101616.70;;;4.88;43.04
39954;BME280;25631;51.516;-0.470;2023-02-23T09:25:15;101611.50;;;5.20;43.05
39954;BME280;25631;51.516;-0.470;2023-02-23T09:27:53;101609.27;;;5.16;43.26
39954;BME280;25631;51.516;-0.470;2023-02-23T09:30:30;101613.27;;;5.07;43.26
39954;BME280;25631;51.516;-0.470;2023-02-23T09:33:07;101614.66;;;5.05;43.37
39954;BME280;25631;51.516;-0.470;2023-02-23T09:35:44;101617.22;;;5.19;43.18
39954;BME280;25631;51.516;-0.470;2023-02-23T09:38:20;101618.79;;;5.35;43.03
39954;BME280;25631;51.516;-0.470;2023-02-23T09:40:57;101622.89;;;5.42;42.88
39954;BME280;25631;51.516;-0.470;2023-02-23T09:43:40;101625.39;;;5.08;42.59
39954;BME280;25631;51.516;-0.470;2023-02-23T09:46:26;101624.48;;;5.59;42.50
39954;BME280;25631;51.516;-0.470;2023-02-23T09:49:13;101627.47;;;5.29;42.52
39954;BME280;25631;51.516;-0.470;2023-02-23T09:51:54;101632.74;;;5.40;42.42
39954;BME280;25631;51.516;-0.470;2023-02-23T09:54:34;101633.11;;;5.36;42.40
39954;BME280;25631;51.516;-0.470;2023-02-23T09:57:15;101645.07;;;5.24;42.09
39954;BME280;25631;51.516;-0.470;2023-02-23T09:59:52;101641.43;;;5.60;41.97
39954;BME280;25631;51.516;-0.470;2023-02-23T10:02:35;101636.54;;;5.26;41.70
39954;BME280;25631;51.516;-0.470;2023-02-23T10:05:14;101639.17;;;5.30;41.78
39954;BME280;25631;51.516;-0.470;2023-02-23T10:07:53;101641.60;;;5.32;41.68
39954;BME280;25631;51.516;-0.470;2023-02-23T10:10:37;101644.52;;;5.34;41.75
39954;BME280;25631;51.516;-0.470;2023-02-23T10:13:23;101647.74;;;5.29;41.59
39954;BME280;25631;51.516;-0.470;2023-02-23T10:16:12;101648.90;;;5.75;41.75
39954;BME280;25631;51.516;-0.470;2023-02-23T10:18:59;101647.16;;;5.82;42.09
39954;BME280;25631;51.516;-0.470;2023-02-23T10:21:40;101653.91;;;5.85;42.05
39954;BME280;25631;51.516;-0.470;2023-02-23T10:24:20;101659.76;;;5.94;42.00
39954;BME280;25631;51.516;-0.470;2023-02-23T10:27:01;101665.46;;;5.53;41.97
39954;BME280;25631;51.516;-0.470;2023-02-23T10:29:42;101666.85;;;5.81;42.02
39954;BME280;25631;51.516;-0.470;2023-02-23T10:32:39;101662.42;;;5.12;42.13
39954;BME280;25631;51.516;-0.470;2023-02-23T10:35:19;101657.85;;;5.42;42.13
39954;BME280;25631;51.516;-0.470;2023-02-23T10:37:56;101663.58;;;5.19;42.54
39954;BME280;25631;51.516;-0.470;2023-02-23T10:40:33;101671.76;;;5.36;42.50
39954;BME280;25631;51.516;-0.470;2023-02-23T10:43:12;101676.61;;;5.44;42.55
39954;BME280;25631;51.516;-0.470;2023-02-23T10:45:51;101683.59;;;5.39;42.40
39954;BME280;25631;51.516;-0.470;2023-02-23T10:48:32;101680.11;;;5.47;42.26
39954;BME280;25631;51.516;-0.470;2023-02-23T10:51:16;101672.84;;;5.31;42.29
39954;BME280;25631;51.516;-0.470;2023-02-23T10:53:53;101671.79;;;5.46;42.40
39954;BME280;25631;51.516;-0.470;2023-02-23T10:56:30;101669.16;;;5.70;42.45
39954;BME280;25631;51.516;-0.470;2023-02-23T10:59:18;101679.63;;;5.96;42.18
39954;BME280;25631;51.516;-0.470;2023-02-23T11:01:55;101694.12;;;5.88;42.30
39954;BME280;25631;51.516;-0.470;2023-02-23T11:04:32;101689.76;;;5.86;42.51
39954;BME280;25631;51.516;-0.470;2023-02-23T11:07:16;101685.50;;;5.75;43.10
39954;BME280;25631;51.516;-0.470;2023-02-23T11:09:53;101681.83;;;5.88;43.21
39954;BME280;25631;51.516;-0.470;2023-02-23T11:12:37;101685.90;;;5.59;43.50
39954;BME280;25631;51.516;-0.470;2023-02-23T11:15:27;101693.02;;;5.72;43.35
39954;BME280;25631;51.516;-0.470;2023-02-23T11:18:05;101700.52;;;5.86;43.16
39954;BME280;25631;51.516;-0.470;2023-02-23T11:20:42;101693.55;;;5.88;42.70
39954;BME280;25631;51.516;-0.470;2023-02-23T11:23:22;101695.69;;;5.83;42.73
39954;BME280;25631;51.516;-0.470;2023-02-23T11:26:03;101698.67;;;5.70;42.62
39954;BME280;25631;51.516;-0.470;2023-02-23T11:28:42;101696.59;;;5.70;42.52
39954;BME280;25631;51.516;-0.470;2023-02-23T11:31:22;101693.78;;;6.03;42.43
39954;BME280;25631;51.516;-0.470;2023-02-23T11:34:05;101696.50;;;6.34;42.48
39954;BME280;25631;51.516;-0.470;2023-02-23T11:36:42;101699.96;;;6.55;42.38
39954;BME280;25631;51.516;-0.470;2023-02-23T11:39:20;101699.75;;;6.38;42.34
39954;BME280;25631;51.516;-0.470;2023-02-23T11:42:16;101695.58;;;6.52;41.83
39954;BME280;25631;51.516;-0.470;2023-02-23T11:45:02;101694.59;;;6.48;40.91
39954;BME280;25631;51.516;-0.470;2023-02-23T11:47:43;101697.15;;;6.57;41.05
39954;BME280;25631;51.516;-0.470;2023-02-23T11:50:24;101697.34;;;6.04;40.80
39954;BME280;25631;51.516;-0.470;2023-02-23T11:53:03;101699.66;;;6.04;40.10
39954;BME280;25631;51.516;-0.470;2023-02-23T11:55:46;101696.92;;;6.18;40.22
39954;BME280;25631;51.516;-0.470;2023-02-23T11:58:31;101701.65;;;6.28;40.24
39954;BME280;25631;51.516;-0.470;2023-02-23T12:01:11;101695.16;;;6.16;39.95
39954;BME280;25631;51.516;-0.470;2023-02-23T12:03:52;101689.25;;;6.14;39.88
39954;BME280;25631;51.516;-0.470;2023-02-23T12:06:31;101695.42;;;6.16;40.10
39954;BME280;25631;51.516;-0.470;2023-02-23T12:09:17;101697.63;;;6.24;40.00
39954;BME280;25631;51.516;-0.470;2023-02-23T12:12:02;101694.49;;;6.36;39.95
39954;BME280;25631;51.516;-0.470;2023-02-23T12:14:44;101693.92;;;6.30;39.95
39954;BME280;25631;51.516;-0.470;2023-02-23T12:17:25;101694.41;;;6.25;39.79
39954;BME280;25631;51.516;-0.470;2023-02-23T12:20:09;101691.21;;;6.33;39.67
39954;BME280;25631;51.516;-0.470;2023-02-23T12:22:51;101694.52;;;6.23;40.07
39954;BME280;25631;51.516;-0.470;2023-02-23T12:25:36;101695.82;;;6.29;40.24
39954;BME280;25631;51.516;-0.470;2023-02-23T12:28:21;101682.74;;;6.65;40.34
39954;BME280;25631;51.516;-0.470;2023-02-23T12:31:03;101685.12;;;6.55;40.31
39954;BME280;25631;51.516;-0.470;2023-02-23T12:33:44;101687.22;;;6.38;40.30
39954;BME280;25631;51.516;-0.470;2023-02-23T12:36:29;101687.91;;;6.49;39.81
39954;BME280;25631;51.516;-0.470;2023-02-23T12:39:18;101683.79;;;6.56;39.46
39954;BME280;25631;51.516;-0.470;2023-02-23T12:42:04;101676.69;;;6.61;39.60
39954;BME280;25631;51.516;-0.470;2023-02-23T12:44:45;101675.85;;;6.63;39.12
39954;BME280;25631;51.516;-0.470;2023-02-23T12:47:32;101682.84;;;6.97;39.12
39954;BME280;25631;51.516;-0.470;2023-02-23T12:50:12;101682.55;;;7.00;38.91
39954;BME280;25631;51.516;-0.470;2023-02-23T12:52:56;101685.37;;;6.74;38.68
39954;BME280;25631;51.516;-0.470;2023-02-23T12:55:38;101688.66;;;6.80;38.22
39954;BME280;25631;51.516;-0.470;2023-02-23T12:58:23;101686.07;;;6.78;38.08
39954;BME280;25631;51.516;-0.470;2023-02-23T13:01:07;101689.43;;;6.91;38.13
39954;BME280;25631;51.516;-0.470;2023-02-23T13:03:58;101688.27;;;7.36;38.05
39954;BME280;25631;51.516;-0.470;2023-02-23T13:06:46;101692.05;;;7.44;38.11
39954;BME280;25631;51.516;-0.470;2023-02-23T13:09:38;101697.94;;;7.32;37.93
39954;BME280;25631;51.516;-0.470;2023-02-23T13:12:33;101695.82;;;7.01;38.00
39954;BME280;25631;51.516;-0.470;2023-02-23T13:15:21;101693.11;;;6.48;37.82
39954;BME280;25631;51.516;-0.470;2023-02-23T13:18:03;101689.87;;;6.91;37.82
39954;BME280;25631;51.516;-0.470;2023-02-23T13:20:44;101688.11;;;6.85;37.71
39954;BME280;25631;51.516;-0.470;2023-02-23T13:23:30;101688.34;;;6.76;37.62
39954;BME280;25631;51.516;-0.470;2023-02-23T13:26:16;101689.95;;;7.36;37.69
39954;BME280;25631;51.516;-0.470;2023-02-23T13:28:59;101697.09;;;7.17;37.66
39954;BME280;25631;51.516;-0.470;2023-02-23T13:31:39;101695.12;;;6.99;37.64
39954;BME280;25631;51.516;-0.470;2023-02-23T13:34:23;101694.87;;;6.81;37.40
39954;BME280;25631;51.516;-0.470;2023-02-23T13:37:05;101690.97;;;7.24;37.00
39954;BME280;25631;51.516;-0.470;2023-02-23T13:39:48;101693.15;;;6.89;36.99
39954;BME280;25631;51.516;-0.470;2023-02-23T13:42:35;101695.20;;;6.93;37.04
39954;BME280;25631;51.516;-0.470;2023-02-23T13:45:29;101690.80;;;6.95;37.15
39954;BME280;25631;51.516;-0.470;2023-02-23T13:48:17;101690.92;;;6.66;37.05
39954;BME280;25631;51.516;-0.470;2023-02-23T13:50:59;101689.63;;;6.94;36.95
39954;BME280;25631;51.516;-0.470;2023-02-23T13:53:43;101687.82;;;6.65;36.72
39954;BME280;25631;51.516;-0.470;2023-02-23T13:56:22;101694.51;;;7.11;36.72
39954;BME280;25631;51.516;-0.470;2023-02-23T13:59:00;101696.55;;;6.89;36.45
39954;BME280;25631;51.516;-0.470;2023-02-23T14:01:39;101696.47;;;6.79;36.15